TAF Text Data
IDs:
Format:
Raw Decoded Include METAR

Data at: 1918 UTC 31 Jan 2023

METAR for:LWSK (Skopje/Alexander the, IL, MK)
Text:LWSK 311900Z 32005KT 9999 SCT050 03/M02 Q1019 NOSIG
Temperature: 3.0°C ( 37°F)
Dewpoint: -2.0°C ( 28°F) [RH = 70%]
Pressure (altimeter):30.09 inches Hg (1019.0 mb)
Winds:from the NW (320 degrees) at 6 MPH (5 knots; 2.6 m/s)
Visibility:6 or more sm (10+ km)
Ceiling:at least 12,000 feet AGL
Clouds: scattered clouds at 5000 feet AGL

TAF for:LWSK (Skopje/Alexander the, IL, MK) issued at 1755 UTC 31 Jan 2023
Text:TAF AMD LWSK 311755Z 3118/0118 03006KT 9999 SCT050
Forecast period:1800 UTC 31 January 2023 to 1800 UTC 01 February 2023
Forecast type:FROM: standard forecast or significant change
Winds:from the NNE (30 degrees) at 7 MPH (6 knots; 3.1 m/s)
Visibility:6 or more sm (10+ km)
Ceiling:at least 12,000 feet AGL
Clouds: scattered clouds at 5000 feet AGL